createdAt,value
2023-05-12T00:01:17.537Z,3.38
2023-05-12T00:03:44.556Z,3.33
2023-05-12T00:06:12.357Z,3.67
2023-05-12T00:08:39.138Z,3.10
2023-05-12T00:11:06.085Z,3.78
2023-05-12T00:13:32.930Z,3.60
2023-05-12T00:15:59.994Z,3.80
2023-05-12T00:18:28.490Z,3.73
2023-05-12T00:20:55.634Z,4.00
2023-05-12T00:23:22.980Z,4.10
2023-05-12T00:25:50.585Z,3.80
2023-05-12T00:28:18.767Z,3.75
2023-05-12T00:30:45.880Z,3.70
2023-05-12T00:33:12.856Z,4.05
2023-05-12T00:35:39.640Z,3.60
2023-05-12T00:38:06.577Z,3.72
2023-05-12T00:40:33.440Z,4.00
2023-05-12T00:43:00.522Z,3.77
2023-05-12T00:45:30.013Z,3.92
2023-05-12T00:47:57.362Z,3.90
2023-05-12T00:50:24.587Z,4.18
2023-05-12T00:52:52.676Z,3.92
2023-05-12T00:55:19.716Z,4.60
2023-05-12T00:57:46.713Z,3.75
2023-05-12T01:00:14.935Z,4.00
2023-05-12T01:02:43.462Z,4.10
2023-05-12T01:05:10.889Z,3.90
2023-05-12T01:07:39.593Z,4.03
2023-05-12T01:10:21.462Z,4.07
2023-05-12T01:12:48.622Z,4.45
2023-05-12T01:15:15.840Z,4.10
2023-05-12T01:17:50.861Z,3.83
2023-05-12T01:20:21.670Z,4.57
2023-05-12T01:22:49.695Z,3.80
2023-05-12T01:25:19.417Z,4.07
2023-05-12T01:27:46.842Z,4.03
2023-05-12T01:30:18.154Z,3.67
2023-05-12T01:32:45.478Z,3.87
2023-05-12T01:35:12.661Z,3.47
2023-05-12T01:37:46.305Z,3.47
2023-05-12T01:40:13.398Z,3.63
2023-05-12T01:42:42.215Z,4.15
2023-05-12T01:45:11.321Z,3.23
2023-05-12T01:47:38.470Z,3.30
2023-05-12T01:50:07.939Z,3.60
2023-05-12T01:52:34.929Z,3.40
2023-05-12T01:55:02.279Z,3.63
2023-05-12T01:57:35.904Z,3.73
2023-05-12T02:00:02.985Z,3.80
2023-05-12T02:02:42.772Z,3.92
2023-05-12T02:05:11.592Z,3.83
2023-05-12T02:07:38.524Z,4.25
2023-05-12T02:10:06.880Z,4.40
2023-05-12T02:12:34.626Z,4.13
2023-05-12T02:15:01.585Z,4.20
2023-05-12T02:17:29.986Z,3.85
2023-05-12T02:20:00.016Z,3.80
2023-05-12T02:22:27.023Z,3.60
2023-05-12T02:24:53.946Z,3.83
2023-05-12T02:27:21.080Z,3.83
2023-05-12T02:29:47.928Z,4.00
2023-05-12T02:32:15.911Z,3.70
2023-05-12T02:34:46.043Z,3.50
2023-05-12T02:37:13.557Z,3.17
2023-05-12T02:39:40.969Z,3.55
2023-05-12T02:42:07.890Z,3.20
2023-05-12T02:44:34.910Z,3.10
2023-05-12T02:47:01.878Z,2.97
2023-05-12T02:49:30.299Z,2.70
2023-05-12T02:51:57.200Z,2.60
2023-05-12T02:54:24.034Z,3.00
2023-05-12T02:56:51.250Z,2.70
2023-05-12T02:59:18.154Z,2.60
2023-05-12T03:01:44.929Z,2.50
2023-05-12T03:04:11.710Z,2.45
2023-05-12T03:06:38.557Z,2.40
2023-05-12T03:09:05.375Z,2.55
2023-05-12T03:11:32.266Z,2.50
2023-05-12T03:13:59.088Z,2.20
2023-05-12T03:16:26.531Z,2.17
2023-05-12T03:18:53.713Z,2.20
2023-05-12T03:21:20.780Z,2.17
2023-05-12T03:23:47.662Z,2.33
2023-05-12T03:26:14.485Z,2.15
2023-05-12T03:28:41.401Z,2.40
2023-05-12T03:31:08.393Z,2.10
2023-05-12T03:33:35.451Z,2.50
2023-05-12T03:36:02.329Z,2.60
2023-05-12T03:38:29.374Z,3.20
2023-05-12T03:41:06.578Z,2.75
2023-05-12T03:43:34.694Z,2.95
2023-05-12T03:46:01.902Z,3.33
2023-05-12T03:48:28.979Z,3.07
2023-05-12T03:50:56.553Z,3.60
2023-05-12T03:53:23.484Z,3.70
2023-05-12T03:55:51.142Z,4.13
2023-05-12T03:58:18.314Z,4.78
2023-05-12T04:00:46.693Z,4.90
2023-05-12T04:03:13.647Z,5.45
2023-05-12T04:05:41.315Z,5.57
2023-05-12T04:08:08.539Z,6.00
2023-05-12T04:10:40.269Z,6.20
2023-05-12T04:13:08.200Z,7.10
2023-05-12T04:15:35.820Z,7.70
2023-05-12T04:18:03.867Z,7.57
2023-05-12T04:20:30.774Z,7.88
2023-05-12T04:22:57.645Z,7.85
2023-05-12T04:25:24.625Z,8.50
2023-05-12T04:27:51.395Z,8.70
2023-05-12T04:30:18.535Z,8.70
2023-05-12T04:32:45.894Z,8.70
2023-05-12T04:35:12.798Z,9.30
2023-05-12T04:37:39.704Z,8.70
2023-05-12T04:40:08.204Z,8.85
2023-05-12T04:42:35.817Z,9.10
2023-05-12T04:45:02.612Z,9.13
2023-05-12T04:47:29.782Z,9.88
2023-05-12T04:49:57.063Z,9.90
2023-05-12T04:52:24.963Z,10.20
2023-05-12T04:54:52.165Z,10.05
2023-05-12T04:57:19.167Z,10.10
2023-05-12T04:59:45.980Z,9.63
2023-05-12T05:02:12.875Z,10.60
2023-05-12T05:04:39.747Z,11.10
2023-05-12T05:07:06.734Z,11.88
2023-05-12T05:09:36.086Z,11.15
2023-05-12T05:12:03.338Z,11.32
2023-05-12T05:14:30.255Z,11.00
2023-05-12T05:16:57.824Z,11.40
2023-05-12T05:19:36.451Z,11.88
2023-05-12T05:22:12.281Z,11.55
2023-05-12T05:24:39.103Z,12.38
2023-05-12T05:27:06.205Z,12.73
2023-05-12T05:29:33.062Z,11.77
2023-05-12T05:31:59.956Z,11.95
2023-05-12T05:34:27.205Z,12.30
2023-05-12T05:36:55.027Z,12.90
2023-05-12T05:39:22.560Z,13.07
2023-05-12T05:41:49.389Z,12.70
2023-05-12T05:44:16.249Z,13.13
2023-05-12T05:46:43.089Z,13.30
2023-05-12T05:49:10.105Z,12.35
2023-05-12T05:51:36.983Z,14.03
2023-05-12T05:54:04.040Z,13.93
2023-05-12T05:56:32.698Z,13.80
2023-05-12T05:59:03.126Z,14.05
2023-05-12T06:01:30.603Z,13.38
2023-05-12T06:03:57.941Z,13.73
2023-05-12T06:06:25.066Z,14.07
2023-05-12T06:08:51.916Z,14.18
2023-05-12T06:11:18.754Z,14.07
2023-05-12T06:13:45.618Z,13.50
2023-05-12T06:16:12.554Z,14.53
2023-05-12T06:18:39.553Z,14.38
2023-05-12T06:21:06.570Z,14.35
2023-05-12T06:23:33.482Z,13.80
2023-05-12T06:26:00.331Z,14.70
2023-05-12T06:28:28.160Z,13.80
2023-05-12T06:30:55.724Z,14.32
2023-05-12T06:33:22.554Z,13.75
2023-05-12T06:35:50.636Z,13.55
2023-05-12T06:38:17.452Z,15.07
2023-05-12T06:40:44.845Z,14.20
2023-05-12T06:43:12.059Z,14.30
2023-05-12T06:45:38.915Z,13.63
2023-05-12T06:48:09.552Z,14.48
2023-05-12T06:50:36.499Z,13.20
2023-05-12T06:53:03.553Z,13.60
2023-05-12T06:55:30.334Z,14.48
2023-05-12T06:57:57.221Z,14.45
2023-05-12T07:00:25.071Z,13.75
2023-05-12T07:02:52.533Z,13.88
2023-05-12T07:05:20.013Z,13.83
2023-05-12T07:07:46.986Z,15.27
2023-05-12T07:10:14.041Z,13.35
2023-05-12T07:12:42.134Z,13.35
2023-05-12T07:15:10.381Z,14.10
2023-05-12T07:17:37.936Z,13.30
2023-05-12T07:20:05.703Z,14.43
2023-05-12T07:22:32.768Z,13.35
2023-05-12T07:24:59.882Z,13.00
2023-05-12T07:27:26.962Z,13.23
2023-05-12T07:29:54.078Z,13.10
2023-05-12T07:32:20.813Z,13.23
2023-05-12T07:34:47.539Z,13.07
2023-05-12T07:37:14.481Z,13.98
2023-05-12T07:39:41.259Z,13.13
2023-05-12T07:42:08.926Z,13.57
2023-05-12T07:44:36.251Z,13.60
2023-05-12T07:47:03.174Z,13.57
2023-05-12T07:49:29.928Z,13.45
2023-05-12T07:51:56.733Z,12.57
2023-05-12T07:54:23.526Z,13.07
2023-05-12T07:56:50.552Z,13.27
2023-05-12T07:59:17.666Z,13.25
2023-05-12T08:01:44.540Z,13.52
2023-05-12T08:04:12.115Z,13.40
2023-05-12T08:06:38.972Z,13.00
2023-05-12T08:09:05.769Z,12.75
2023-05-12T08:11:32.654Z,13.25
2023-05-12T08:13:59.517Z,12.23
2023-05-12T08:16:26.517Z,11.98
2023-05-12T08:18:53.412Z,12.03
2023-05-12T08:21:20.423Z,12.30
2023-05-12T08:23:47.311Z,11.80
2023-05-12T08:26:14.071Z,11.48
2023-05-12T08:28:40.848Z,11.65
2023-05-12T08:31:07.920Z,10.90
2023-05-12T08:33:36.185Z,10.20
2023-05-12T08:36:03.303Z,10.00
2023-05-12T08:38:30.284Z,9.32
2023-05-12T08:41:20.036Z,10.00
2023-05-12T08:43:51.174Z,9.77
2023-05-12T08:46:18.544Z,9.52
2023-05-12T08:48:50.822Z,9.13
2023-05-12T08:51:19.047Z,8.80
2023-05-12T08:53:47.655Z,8.85
2023-05-12T08:58:49.715Z,9.20
2023-05-12T09:01:17.437Z,9.40
2023-05-12T09:03:44.498Z,9.23
2023-05-12T09:06:12.044Z,8.43
2023-05-12T09:08:40.678Z,8.70
2023-05-12T09:11:11.495Z,8.10
2023-05-12T09:14:25.862Z,7.78
2023-05-12T09:16:59.885Z,7.43
2023-05-12T09:19:26.950Z,8.20
2023-05-12T09:21:54.306Z,7.40
2023-05-12T09:24:22.376Z,7.22
2023-05-12T09:26:53.776Z,6.88
2023-05-12T09:29:31.481Z,6.72
2023-05-12T09:32:04.635Z,6.50
2023-05-12T09:34:38.580Z,6.10
2023-05-12T09:37:07.311Z,5.80
2023-05-12T09:39:34.725Z,5.70
2023-05-12T09:42:01.651Z,5.70
2023-05-12T09:44:31.521Z,6.30
2023-05-12T09:47:07.461Z,5.87
2023-05-12T09:49:34.334Z,6.38
2023-05-12T09:52:01.322Z,6.15
2023-05-12T09:54:29.923Z,6.25
2023-05-12T09:57:04.924Z,6.18
2023-05-12T09:59:34.821Z,6.53
2023-05-12T10:02:05.402Z,6.43
2023-05-12T10:04:43.354Z,6.53
2023-05-12T10:07:15.780Z,6.18
2023-05-12T10:09:44.315Z,5.88
2023-05-12T10:12:11.807Z,5.23
2023-05-12T10:14:38.953Z,5.38
2023-05-12T10:17:07.043Z,5.85
2023-05-12T10:19:35.995Z,5.50
2023-05-12T10:22:04.000Z,5.93
2023-05-12T10:24:30.886Z,5.60
2023-05-12T10:26:59.360Z,6.15
2023-05-12T10:29:30.447Z,5.78
2023-05-12T10:31:58.334Z,5.65
2023-05-12T10:34:34.713Z,6.10
2023-05-12T10:37:04.326Z,5.60
2023-05-12T10:39:32.877Z,5.85
2023-05-12T10:42:06.537Z,5.10
2023-05-12T10:44:33.487Z,4.80
2023-05-12T10:47:00.739Z,4.45
2023-05-12T10:49:38.965Z,4.03
2023-05-12T10:52:07.499Z,4.10
2023-05-12T10:54:46.807Z,4.10
2023-05-12T10:57:18.424Z,3.78
2023-05-12T11:00:13.957Z,4.15
2023-05-12T11:02:51.440Z,4.30
2023-05-12T11:05:20.185Z,3.90
2023-05-12T11:07:50.914Z,4.03
2023-05-12T11:10:19.898Z,3.95
2023-05-12T11:12:47.650Z,3.65
2023-05-12T11:15:16.013Z,3.70
2023-05-12T11:17:46.184Z,3.58
2023-05-12T11:20:26.714Z,3.10
2023-05-12T11:22:55.107Z,3.30
2023-05-12T11:25:22.135Z,3.15
2023-05-12T11:27:53.261Z,3.30
2023-05-12T11:30:20.252Z,3.00
2023-05-12T11:32:47.377Z,3.03
2023-05-12T11:35:19.610Z,3.00
2023-05-12T11:37:46.932Z,2.90
2023-05-12T11:40:18.963Z,2.70
2023-05-12T11:42:48.883Z,2.75
2023-05-12T11:45:21.676Z,2.90
2023-05-12T11:47:48.790Z,2.85
2023-05-12T11:50:25.829Z,2.60
2023-05-12T11:52:53.287Z,2.60
2023-05-12T11:55:23.319Z,2.65
2023-05-12T11:57:58.749Z,2.53
2023-05-12T12:00:34.497Z,2.65
2023-05-12T12:03:15.262Z,2.58
2023-05-12T12:05:45.295Z,2.43
2023-05-12T12:08:14.458Z,2.40
2023-05-12T12:10:45.772Z,2.33
2023-05-12T12:13:19.345Z,2.60
2023-05-12T12:15:46.225Z,2.47
2023-05-12T12:18:13.104Z,2.63
2023-05-12T12:20:40.073Z,2.40
2023-05-12T12:23:06.924Z,2.60
2023-05-12T12:25:33.819Z,2.30
2023-05-12T12:28:00.769Z,2.17
2023-05-12T12:30:27.910Z,2.30
2023-05-12T12:32:54.904Z,2.60
2023-05-12T12:35:22.365Z,2.53
2023-05-12T12:37:51.952Z,2.60
2023-05-12T12:40:20.056Z,2.70
2023-05-12T12:42:47.147Z,2.60
2023-05-12T12:45:14.003Z,2.63
2023-05-12T12:47:40.974Z,2.83
2023-05-12T12:50:10.032Z,2.50
2023-05-12T12:52:38.315Z,2.40
2023-05-12T12:55:06.574Z,2.47
2023-05-12T12:57:33.433Z,2.53
2023-05-12T13:00:00.413Z,2.45
2023-05-12T13:02:27.716Z,2.42
2023-05-12T13:04:54.505Z,2.60
2023-05-12T13:07:21.798Z,2.70
2023-05-12T13:09:48.701Z,2.80
2023-05-12T13:12:15.558Z,2.60
2023-05-12T13:14:42.506Z,2.63
2023-05-12T13:17:09.295Z,2.80
2023-05-12T13:19:38.035Z,2.83
2023-05-12T13:22:05.470Z,2.78
2023-05-12T13:24:32.989Z,2.90
2023-05-12T13:27:00.147Z,3.00
2023-05-12T13:29:27.084Z,3.00
2023-05-12T13:31:54.563Z,3.63
2023-05-12T13:34:21.331Z,3.20
2023-05-12T13:36:48.534Z,2.80
2023-05-12T13:39:16.065Z,2.90
2023-05-12T13:41:43.836Z,2.80
2023-05-12T13:44:10.816Z,2.90
2023-05-12T13:46:37.599Z,2.80
2023-05-12T13:49:04.440Z,3.03
2023-05-12T13:51:32.403Z,3.10
2023-05-12T13:53:59.207Z,3.17
2023-05-12T13:56:26.084Z,3.20
2023-05-12T13:58:52.890Z,3.05
2023-05-12T14:01:19.907Z,3.30
2023-05-12T14:03:46.751Z,3.20
2023-05-12T14:06:13.547Z,3.17
2023-05-12T14:08:41.586Z,2.80
2023-05-12T14:11:08.976Z,2.85
2023-05-12T14:13:35.794Z,3.80
2023-05-12T14:16:02.687Z,3.90
2023-05-12T14:18:29.536Z,3.80
2023-05-12T14:20:57.261Z,3.80
2023-05-12T14:23:24.602Z,3.90
2023-05-12T14:25:51.401Z,3.63
2023-05-12T14:28:18.481Z,3.30
2023-05-12T14:30:45.717Z,3.38
2023-05-12T14:33:12.667Z,3.07
2023-05-12T14:35:39.539Z,3.50
2023-05-12T14:38:06.705Z,3.30
2023-05-12T14:40:33.611Z,3.25
2023-05-12T14:43:00.491Z,3.60
2023-05-12T14:45:28.897Z,3.83
2023-05-12T14:47:55.747Z,4.45
2023-05-12T14:50:23.301Z,4.20
2023-05-12T14:52:50.460Z,4.30
2023-05-12T14:55:17.619Z,4.40
2023-05-12T14:57:45.245Z,4.20
2023-05-12T15:00:15.160Z,4.20
2023-05-12T15:02:45.510Z,4.05
2023-05-12T15:05:13.566Z,4.43
2023-05-12T15:07:40.797Z,4.28
2023-05-12T15:10:08.325Z,4.20
2023-05-12T15:12:35.426Z,4.20
2023-05-12T15:15:05.234Z,4.22
2023-05-12T15:17:32.433Z,4.10
2023-05-12T15:19:59.340Z,3.88
2023-05-12T15:22:26.511Z,4.30
2023-05-12T15:24:53.353Z,4.10
2023-05-12T15:27:20.192Z,4.28
2023-05-12T15:29:47.163Z,4.13
2023-05-12T15:32:13.961Z,4.63
2023-05-12T15:34:40.801Z,4.57
2023-05-12T15:37:07.891Z,4.70
2023-05-12T15:39:34.757Z,4.68
2023-05-12T15:42:01.935Z,5.28
2023-05-12T15:44:28.883Z,4.63
2023-05-12T15:46:55.803Z,4.77
2023-05-12T15:49:22.826Z,4.50
2023-05-12T15:51:49.769Z,4.60
2023-05-12T15:54:16.646Z,4.50
2023-05-12T15:56:43.532Z,4.47
2023-05-12T15:59:12.134Z,4.37
2023-05-12T16:01:39.207Z,4.53
2023-05-12T16:04:06.956Z,4.30
2023-05-12T16:06:33.909Z,4.45
2023-05-12T16:09:00.992Z,4.40
2023-05-12T16:11:28.434Z,4.60
2023-05-12T16:13:57.205Z,4.25
2023-05-12T16:16:24.307Z,4.15
2023-05-12T16:18:51.258Z,4.10
2023-05-12T16:21:18.153Z,3.90
2023-05-12T16:23:44.961Z,3.50
2023-05-12T16:26:11.817Z,2.97
2023-05-12T16:28:38.636Z,3.08
2023-05-12T16:31:05.577Z,3.50
2023-05-12T16:33:32.372Z,3.85
2023-05-12T16:35:59.160Z,3.93
2023-05-12T16:38:26.081Z,4.10
2023-05-12T16:40:52.970Z,4.20
2023-05-12T16:43:19.865Z,4.20
2023-05-12T16:45:46.746Z,4.40
2023-05-12T16:48:13.546Z,4.17
2023-05-12T16:50:40.351Z,4.40
2023-05-12T16:53:07.119Z,4.47
2023-05-12T16:55:33.854Z,4.20
2023-05-12T16:58:01.564Z,4.65
2023-05-12T17:00:28.418Z,4.90
2023-05-12T17:02:55.235Z,5.63
2023-05-12T17:05:22.311Z,5.40
2023-05-12T17:07:49.351Z,5.43
2023-05-12T17:10:16.349Z,5.47
2023-05-12T17:12:43.228Z,5.33
2023-05-12T17:15:11.354Z,5.32
2023-05-12T17:17:38.226Z,4.90
2023-05-12T17:20:06.118Z,5.50
2023-05-12T17:22:34.937Z,4.97
2023-05-12T17:25:01.806Z,5.40
2023-05-12T17:27:28.594Z,5.63
2023-05-12T17:29:56.680Z,5.30
2023-05-12T17:32:23.528Z,5.45
2023-05-12T17:34:51.119Z,5.20
2023-05-12T17:37:18.170Z,4.90
2023-05-12T17:39:44.936Z,5.28
2023-05-12T17:42:11.797Z,4.95
2023-05-12T17:44:38.654Z,5.35
2023-05-12T17:47:05.764Z,5.32
2023-05-12T17:49:32.667Z,5.47
2023-05-12T17:51:59.453Z,5.13
2023-05-12T17:54:26.305Z,5.10
2023-05-12T17:56:53.081Z,5.35
2023-05-12T17:59:19.852Z,5.40
2023-05-12T18:01:46.753Z,5.50
2023-05-12T18:04:13.964Z,5.50
2023-05-12T18:06:41.007Z,5.75
2023-05-12T18:09:08.894Z,5.68
2023-05-12T18:11:35.851Z,6.10
2023-05-12T18:14:05.740Z,6.20
2023-05-12T18:16:33.323Z,5.70
2023-05-12T18:19:00.509Z,5.95
2023-05-12T18:21:27.515Z,5.53
2023-05-12T18:23:54.375Z,5.13
2023-05-12T18:26:21.532Z,5.23
2023-05-12T18:28:48.661Z,5.45
2023-05-12T18:31:16.750Z,6.13
2023-05-12T18:33:47.590Z,5.53
2023-05-12T18:36:14.920Z,5.60
2023-05-12T18:38:42.395Z,5.80
2023-05-12T18:41:09.500Z,6.32
2023-05-12T18:43:36.593Z,5.60
2023-05-12T18:46:04.317Z,5.82
2023-05-12T18:48:31.407Z,5.78
2023-05-12T18:50:58.480Z,6.10
2023-05-12T18:53:25.458Z,6.03
2023-05-12T18:55:52.294Z,6.00
2023-05-12T18:58:19.017Z,6.35
2023-05-12T19:00:45.850Z,6.40
2023-05-12T19:03:12.764Z,6.17
2023-05-12T19:05:44.559Z,6.60
2023-05-12T19:08:12.613Z,6.05
2023-05-12T19:10:40.200Z,6.10
2023-05-12T19:13:07.273Z,6.55
2023-05-12T19:15:34.288Z,6.70
2023-05-12T19:18:01.157Z,6.90
2023-05-12T19:20:29.102Z,6.63
2023-05-12T19:22:56.030Z,6.60
2023-05-12T19:25:23.127Z,7.10
2023-05-12T19:27:50.932Z,6.53
2023-05-12T19:30:17.936Z,7.32
2023-05-12T19:32:46.257Z,6.90
2023-05-12T19:35:16.695Z,7.03
2023-05-12T19:37:43.840Z,7.40
2023-05-12T19:40:11.438Z,7.30
2023-05-12T19:42:38.265Z,7.32
2023-05-12T19:45:05.800Z,7.25
2023-05-12T19:47:33.400Z,7.00
2023-05-12T19:50:00.586Z,7.65
2023-05-12T19:52:30.797Z,7.93
2023-05-12T19:54:57.752Z,8.10
2023-05-12T19:57:24.633Z,7.80
2023-05-12T19:59:51.391Z,8.50
2023-05-12T20:02:18.583Z,8.00
2023-05-12T20:04:45.557Z,8.30
2023-05-12T20:07:12.364Z,8.45
2023-05-12T20:09:39.219Z,9.45
2023-05-12T20:12:08.048Z,9.32
2023-05-12T20:14:36.201Z,9.00
2023-05-12T20:17:05.635Z,9.20
2023-05-12T20:19:33.344Z,9.38
2023-05-12T20:22:00.246Z,9.82
2023-05-12T20:24:27.544Z,9.85
2023-05-12T20:26:54.670Z,9.63
2023-05-12T20:29:21.668Z,9.80
2023-05-12T20:31:50.081Z,10.25
2023-05-12T20:34:17.810Z,10.23
2023-05-12T20:36:45.491Z,10.00
2023-05-12T20:39:13.805Z,10.15
2023-05-12T20:41:41.582Z,9.60
2023-05-12T20:44:08.755Z,10.02
2023-05-12T20:46:38.206Z,9.68
2023-05-12T20:49:08.364Z,9.68
2023-05-12T20:51:35.226Z,9.00
2023-05-12T20:54:02.069Z,9.10
2023-05-12T20:56:29.118Z,8.93
2023-05-12T20:58:57.590Z,9.07
2023-05-12T21:01:24.520Z,9.43
2023-05-12T21:03:51.350Z,8.93
2023-05-12T21:06:18.309Z,8.80
2023-05-12T21:08:46.654Z,8.75
2023-05-12T21:11:16.016Z,8.50
2023-05-12T21:13:43.866Z,8.75
2023-05-12T21:16:11.194Z,8.27
2023-05-12T21:18:38.472Z,8.50
2023-05-12T21:21:06.511Z,8.80
2023-05-12T21:23:34.671Z,8.38
2023-05-12T21:26:01.653Z,8.50
2023-05-12T21:28:28.563Z,8.50
2023-05-12T21:30:55.437Z,8.93
2023-05-12T21:33:22.440Z,8.32
2023-05-12T21:35:52.283Z,8.65
2023-05-12T21:38:20.677Z,8.70
2023-05-12T21:40:56.320Z,8.43
2023-05-12T21:43:23.293Z,7.93
2023-05-12T21:45:50.394Z,8.77
2023-05-12T21:48:17.546Z,8.98
2023-05-12T21:50:44.360Z,8.88
2023-05-12T21:53:11.573Z,8.77
2023-05-12T21:55:40.643Z,8.40
2023-05-12T21:58:07.480Z,8.52
2023-05-12T22:00:34.385Z,8.50
2023-05-12T22:03:01.302Z,8.57
2023-05-12T22:05:28.193Z,8.90
2023-05-12T22:07:55.730Z,8.53
2023-05-12T22:10:22.750Z,8.90
2023-05-12T22:12:50.076Z,8.73
2023-05-12T22:15:18.213Z,8.18
2023-05-12T22:17:49.438Z,8.93
2023-05-12T22:20:17.252Z,8.67
2023-05-12T22:22:44.311Z,8.75
2023-05-12T22:25:11.122Z,9.00
2023-05-12T22:27:38.065Z,9.10
2023-05-12T22:30:06.976Z,9.02
2023-05-12T22:32:34.028Z,8.93
2023-05-12T22:35:00.883Z,9.13
2023-05-12T22:37:27.848Z,9.40
2023-05-12T22:39:54.923Z,9.10
2023-05-12T22:42:21.837Z,9.90
2023-05-12T22:44:49.465Z,9.73
2023-05-12T22:47:16.692Z,9.70
2023-05-12T22:49:43.728Z,9.55
2023-05-12T22:52:10.798Z,9.95
2023-05-12T22:54:37.611Z,9.15
2023-05-12T22:57:04.517Z,8.77
2023-05-12T22:59:31.216Z,8.77
2023-05-12T23:01:57.985Z,9.02
2023-05-12T23:04:24.967Z,9.20
2023-05-12T23:06:51.846Z,8.65
2023-05-12T23:09:18.683Z,9.40
2023-05-12T23:11:45.537Z,8.80
2023-05-12T23:14:12.740Z,8.15
2023-05-12T23:16:39.565Z,8.25
2023-05-12T23:19:06.430Z,8.20
2023-05-12T23:21:33.315Z,7.77
2023-05-12T23:24:00.213Z,7.90
2023-05-12T23:26:27.126Z,7.80
2023-05-12T23:28:54.217Z,7.97
2023-05-12T23:31:21.103Z,7.50
2023-05-12T23:33:47.905Z,7.83
2023-05-12T23:36:14.809Z,7.45
2023-05-12T23:38:41.723Z,7.80
2023-05-12T23:41:08.665Z,7.60
2023-05-12T23:43:35.464Z,7.38
2023-05-12T23:46:02.412Z,7.23
2023-05-12T23:48:30.186Z,7.03
2023-05-12T23:50:57.020Z,6.90
2023-05-12T23:53:23.862Z,6.65
2023-05-12T23:55:50.747Z,6.60
2023-05-12T23:58:17.643Z,6.13
